Orford, Tasmania

5:34 PM AEDT on December 19, 2014 (GMT +1100)
Lower East Coast, Tasmania | Change Station
CLOSE
Current Station
Personal Weather Station
Location: Spring Beach, TAS
Elevation: 99 ft
Nearby Weather Stations

Elev 99 ft 42.58 °S, 147.90 °E | Updated 7 minutes ago

Mostly Cloudy
Mostly Cloudy
61.7 °F
Feels Like 61.7 °F
N
1.0
Wind Variable Wind from ENE

Today
High -- | Low -- °F
--% Chance of Precip.
Yesterday
High -- | Low -- °F
Precip. -- in
5:26 AM 8:44 PM
Waning Crescent, 9% visible
Pressure 29.89 in
Visibility 6.2 miles
Clouds Few 4500 ft
Mostly Cloudy 7000 ft
Dew Point 49 °F
Humidity 63%
Rainfall 0.00 in
Snow Depth Not available.
UV 3 out of 12
Pollen Not available.
Air Quality Not available.
Flu Activity Not available.
METAR YMHB 190600Z 14009KT 9999 FEW045 BKN070 16/05 Q1012

More Conditions Fewer Conditions

Pressure 29.89 in
Visibility 6.2 miles
Clouds Few 4500 ft
Mostly Cloudy 7000 ft
Dew Point 49 °F
Humidity 63%
Rainfall 0.00 in
Snow Depth Not available.
UV 3 out of 12
Pollen Not available.
Air Quality Not available.
Flu Activity Not available.
METAR YMHB 190600Z 14009KT 9999 FEW045 BKN070 16/05 Q1012

More Conditions Fewer Conditions

10-Day Weather Forecast

Almanac

Astronomy

Dec. 19, 2014 Rise Set
Actual Time
Civil Twilight
Nautical Twilight
Astronomical Twilight
Moon
Length of Visible Light
Length of Day
Tomorrow will be .
, % of the Moon is Illuminated

Today's Extremes

Country Highs Country Lows

Community

WunderPhotos

Upload Photos

1,778,952 photos uploaded!

WunderBlogs® & News

Nearby

Air Quality

  Air Quality AQ Index Pollutant
Not available.

Snow Depth

Station Depth Elevation

Earthquake Activity

City Distance Mag. Time & Date
Minimum magnitude displayed is 2.5.

Coastal Water Temperatures

Place Temperature

Nearby Weather Stations